PDT,Max TemperatureF,Mean TemperatureF,Min TemperatureF,Max Dew PointF,MeanDew PointF,Min DewpointF,Max Humidity, Mean Humidity, Min Humidity, Max Sea Level PressureIn, Mean Sea Level PressureIn, Min Sea Level PressureIn, Max VisibilityMiles, Mean VisibilityMiles, Min VisibilityMiles, Max Wind SpeedMPH, Mean Wind SpeedMPH, Max Gust SpeedMPH,PrecipitationIn, CloudCover, Events, WindDirDegrees
2013-10-1,93,73,55,44,40,32,49,32,16,29.89,29.80,29.73,10,10,10,21,5,28,0.00,1,,192
2013-10-2,90,72,55,45,40,33,59,34,13,29.85,29.76,29.67,10,10,10,25,9,33,0.00,0,,213
2013-10-3,84,68,53,35,26,14,43,23,9,29.95,29.77,29.71,10,10,8,18,7,25,0.00,0,,273
2013-10-4,75,64,53,15,12,8,21,14,8,30.21,30.11,29.97,10,10,9,22,13,32,0.00,0,,348
2013-10-5,79,64,48,18,13,10,24,15,9,30.32,30.24,30.18,10,10,10,18,6,22,0.00,0,,141
2013-10-6,84,62,41,14,9,3,26,14,5,30.25,30.15,30.04,10,10,10,10,5,,0.00,0,,194
2013-10-7,84,64,43,15,8,1,17,11,6,30.04,29.93,29.80,10,10,10,15,5,18,0.00,3,,192
2013-10-8,82,65,48,31,16,8,29,14,8,29.83,29.72,29.58,10,10,10,15,7,20,0.00,0,,224
2013-10-9,66,58,50,41,36,28,59,45,25,29.72,29.58,29.49,10,10,10,31,19,40,0.00,5,,187
2013-10-10,73,58,43,40,35,32,74,46,23,29.95,29.85,29.73,10,10,10,10,5,,0.00,1,Rain,186
2013-10-11,77,60,43,36,33,27,62,39,19,30.06,29.97,29.91,10,10,10,12,5,17,0.00,0,,176
2013-10-12,80,62,45,33,26,13,56,29,10,29.98,29.88,29.78,10,10,10,17,7,34,0.00,0,,195
2013-10-13,75,65,55,38,31,24,44,29,16,30.02,29.86,29.78,10,10,10,18,10,25,0.00,0,,206
2013-10-14,73,59,45,31,27,24,52,31,18,30.15,30.07,30.01,10,10,10,10,5,,0.00,0,,210
2013-10-15,75,60,44,28,23,18,42,26,12,30.09,30.04,29.98,10,10,10,13,6,17,0.00,0,,191
2013-10-16,73,58,43,21,18,13,38,23,12,30.20,30.11,30.05,10,10,10,9,5,,0.00,0,,192
2013-10-17,79,58,37,24,16,10,32,21,10,30.11,30.02,29.93,10,10,10,10,4,,0.00,0,,193
2013-10-18,81,61,42,23,17,13,36,20,10,30.11,30.05,29.99,10,10,10,9,5,,0.00,0,,170
2013-10-19,84,60,39,17,14,10,29,17,8,30.14,30.06,29.99,10,10,10,12,3,,0.00,0,,161
2013-10-20,84,64,44,19,14,11,26,17,8,30.02,29.95,29.86,10,10,10,12,4,,0.00,0,,184
2013-10-21,84,64,44,17,15,12,29,17,8,30.03,29.98,29.93,10,10,10,10,4,,0.00,0,,160
2013-10-22,84,62,43,21,17,12,29,18,10,30.09,30.01,29.94,10,10,10,8,5,,0.00,0,,190
2013-10-23,84,64,45,22,18,15,30,19,10,29.99,29.93,29.87,10,10,10,10,5,,0.00,2,,198
2013-10-24,84,65,46,24,19,14,30,19,9,29.99,29.94,29.88,10,10,10,10,4,,0.00,0,,164
2013-10-25,86,65,46,26,21,18,37,21,9,30.12,30.06,29.99,10,10,10,9,3,,0.00,0,,184
2013-10-26,86,65,46,22,19,16,34,20,9,30.17,30.08,30.02,10,10,10,12,5,,0.00,0,,190
2013-10-27,84,65,46,36,23,16,34,21,8,30.00,29.80,29.55,10,10,10,28,8,37,0.00,0,,215
2013-10-28,61,56,48,38,32,27,66,43,28,29.82,29.67,29.49,10,10,10,32,24,39,0.00,2,,215
2013-10-29,63,50,37,37,33,29,79,54,32,29.98,29.88,29.82,10,10,10,16,8,20,0.00,2,,212
2013-10-30,64,50,37,31,27,21,68,44,22,30.12,30.06,29.99,10,10,10,8,4,,0.00,0,,168
2013-10-31,70,52,34,26,22,17,59,34,16,30.21,30.14,30.09,10,10,10,9,4,,0.00,0,,184